Time;durP1;ratioP1;P1;durP2;ratioP2;P2;SDS_P1;SDS_P2;PMS_P1;PMS_P2;Temp;Humidity;BMP_temperature;BMP_pressure;BME280_temperature;BME280_humidity;BME280_pressure;Samples;Min_cycle;Max_cycle;Signal;HPM_P1;HPM_P2
2023/08/28 00:02:03;;;;;;;3.10;1.40;;;13.30;99.90;;;;;;5053996;28;20102;-72
2023/08/28 00:04:29;;;;;;;5.22;1.40;;;13.30;99.90;;;;;;5054776;28;20375;-73
2023/08/28 00:06:55;;;;;;;2.72;1.25;;;13.30;99.90;;;;;;5053841;28;20044;-72
2023/08/28 00:09:21;;;;;;;3.28;1.40;;;13.30;99.90;;;;;;5036769;28;20455;-72
2023/08/28 00:11:46;;;;;;;3.92;1.55;;;13.30;99.90;;;;;;5054372;28;20133;-72
2023/08/28 00:14:12;;;;;;;5.55;1.75;;;13.30;99.90;;;;;;5053979;28;20124;-72
2023/08/28 00:16:37;;;;;;;7.85;1.48;;;13.30;99.90;;;;;;5037213;28;20377;-72
2023/08/28 00:19:03;;;;;;;5.63;1.50;;;13.30;99.90;;;;;;5054811;28;20037;-72
2023/08/28 00:21:30;;;;;;;4.70;1.70;;;13.30;99.90;;;;;;5054057;28;20041;-72
2023/08/28 00:23:55;;;;;;;4.60;1.50;;;13.30;99.90;;;;;;5035515;28;20047;-72
2023/08/28 00:26:21;;;;;;;3.03;1.52;;;13.30;99.90;;;;;;5054456;28;20044;-73
2023/08/28 00:28:47;;;;;;;6.05;1.50;;;13.30;99.90;;;;;;5053403;28;20476;-73
2023/08/28 00:31:12;;;;;;;2.70;1.52;;;13.30;99.90;;;;;;5054632;28;20051;-73
2023/08/28 00:33:38;;;;;;;3.88;1.50;;;13.30;99.90;;;;;;5036700;28;20056;-73
2023/08/28 00:36:04;;;;;;;4.28;1.38;;;13.30;99.90;;;;;;5035631;28;20400;-72
2023/08/28 00:38:29;;;;;;;3.78;1.40;;;13.30;99.90;;;;;;5054111;28;20069;-72
2023/08/28 00:40:55;;;;;;;4.05;1.60;;;13.30;99.90;;;;;;5036183;28;20080;-73
2023/08/28 00:43:20;;;;;;;3.05;1.40;;;13.20;99.90;;;;;;5036067;28;20476;-73
2023/08/28 00:45:48;;;;;;;2.85;1.50;;;13.20;99.90;;;;;;5054438;28;20464;-72
2023/08/28 00:48:16;;;;;;;4.93;1.50;;;13.30;99.90;;;;;;5054254;28;20045;-72
2023/08/28 00:50:43;;;;;;;4.80;1.70;;;13.20;99.90;;;;;;5053318;28;20495;-73
2023/08/28 00:53:11;;;;;;;6.13;1.60;;;13.10;99.90;;;;;;5034695;28;20049;-72
2023/08/28 00:55:37;;;;;;;3.72;1.67;;;13.10;99.90;;;;;;5054163;28;20094;-72
2023/08/28 00:58:03;;;;;;;3.33;1.50;;;13.10;99.90;;;;;;5051797;28;20053;-73
2023/08/28 01:00:29;;;;;;;3.80;1.60;;;13.00;99.90;;;;;;5054047;28;20045;-73
2023/08/28 01:02:55;;;;;;;2.30;1.48;;;12.90;99.90;;;;;;5034554;28;20063;-73
2023/08/28 01:05:29;;;;;;;2.35;1.30;;;12.90;99.90;;;;;;5035708;28;20069;-73
2023/08/28 01:08:02;;;;;;;3.40;1.45;;;12.90;99.90;;;;;;5053259;28;20489;-73
2023/08/28 01:10:35;;;;;;;4.18;1.60;;;12.80;99.90;;;;;;5034690;28;20136;-73
2023/08/28 01:13:12;;;;;;;3.20;1.60;;;12.80;99.90;;;;;;5035563;28;20502;-72
2023/08/28 01:15:40;;;;;;;4.15;1.40;;;12.70;99.90;;;;;;5053746;28;20111;-72
2023/08/28 01:18:07;;;;;;;2.47;1.45;;;12.70;99.90;;;;;;5052480;28;20542;-73
2023/08/28 01:20:35;;;;;;;3.05;1.60;;;12.60;99.90;;;;;;5035454;28;20049;-72
2023/08/28 01:23:16;;;;;;;3.10;1.65;;;12.50;99.90;;;;;;5053260;28;20099;-72
2023/08/28 01:25:41;;;;;;;2.60;1.20;;;12.50;99.90;;;;;;5052570;28;20114;-73
2023/08/28 01:28:07;;;;;;;3.92;1.60;;;12.50;99.90;;;;;;5034780;28;20487;-73
2023/08/28 01:30:33;;;;;;;3.95;1.33;;;12.50;99.90;;;;;;5052859;28;20087;-73
2023/08/28 01:32:58;;;;;;;3.22;1.35;;;12.40;99.90;;;;;;5034345;28;20049;-73
2023/08/28 01:35:26;;;;;;;4.38;1.40;;;12.40;99.90;;;;;;5035378;28;20055;-72
2023/08/28 01:38:19;;;;;;;3.13;1.52;;;12.40;99.90;;;;;;5034991;28;20111;-73
2023/08/28 01:41:07;;;;;;;6.68;1.40;;;12.40;99.90;;;;;;5035351;28;20057;-73
2023/08/28 01:43:46;;;;;;;2.40;1.27;;;12.30;99.90;;;;;;5035005;28;20057;-73
2023/08/28 01:46:13;;;;;;;3.25;1.30;;;12.30;99.90;;;;;;5052654;28;20041;-73
2023/08/28 01:48:52;;;;;;;2.95;1.02;;;12.30;99.90;;;;;;5053238;28;20059;-72
2023/08/28 01:51:18;;;;;;;2.70;0.93;;;12.30;99.90;;;;;;5052997;28;20049;-72
2023/08/28 01:53:44;;;;;;;2.67;1.02;;;12.30;99.90;;;;;;5052129;28;20047;-72
2023/08/28 01:56:10;;;;;;;3.78;1.17;;;12.30;99.90;;;;;;5035146;28;20064;-72
2023/08/28 01:58:48;;;;;;;2.00;1.00;;;12.30;99.90;;;;;;5034555;28;20466;-72
2023/08/28 02:01:14;;;;;;;2.20;0.82;;;12.20;99.90;;;;;;5052103;28;20507;-72
2023/08/28 02:03:40;;;;;;;3.22;0.90;;;12.20;99.90;;;;;;5052680;28;20037;-73
2023/08/28 02:06:09;;;;;;;2.83;1.00;;;12.20;99.90;;;;;;5051920;28;20287;-72
2023/08/28 02:08:37;;;;;;;3.00;0.90;;;12.30;99.90;;;;;;5052309;28;20520;-72
2023/08/28 02:11:04;;;;;;;4.05;1.10;;;12.30;99.90;;;;;;5034678;28;20454;-73
2023/08/28 02:13:30;;;;;;;3.88;1.10;;;12.20;99.90;;;;;;5052083;28;20037;-72
2023/08/28 02:15:55;;;;;;;4.97;1.13;;;12.30;99.90;;;;;;5034629;28;20044;-72
2023/08/28 02:18:21;;;;;;;3.20;1.15;;;12.30;99.90;;;;;;5052325;28;20127;-72
2023/08/28 02:20:48;;;;;;;5.30;1.10;;;12.30;99.90;;;;;;5051564;28;20076;-72
2023/08/28 02:23:14;;;;;;;1.90;1.00;;;12.20;99.90;;;;;;5052947;28;20044;-72
2023/08/28 02:25:44;;;;;;;1.92;0.98;;;12.20;99.90;;;;;;5052693;28;20369;-73
2023/08/28 02:28:10;;;;;;;2.53;1.10;;;12.20;99.90;;;;;;5052060;28;20045;-73
2023/08/28 02:30:36;;;;;;;4.05;1.10;;;12.20;99.90;;;;;;5052340;28;20510;-73
2023/08/28 02:33:01;;;;;;;3.83;1.20;;;12.30;99.90;;;;;;5034299;28;20045;-72
2023/08/28 02:35:27;;;;;;;2.40;1.30;;;12.30;99.90;;;;;;5051604;28;20041;-73
2023/08/28 02:37:52;;;;;;;2.47;1.23;;;12.20;99.90;;;;;;5051592;28;20049;-72
2023/08/28 02:40:18;;;;;;;2.55;1.40;;;12.10;99.90;;;;;;5052586;28;20072;-73
2023/08/28 02:42:44;;;;;;;6.45;1.60;;;12.00;99.90;;;;;;5051685;28;20080;-72
2023/08/28 02:45:09;;;;;;;3.15;1.40;;;11.90;99.90;;;;;;5052117;28;20049;-73
2023/08/28 02:47:35;;;;;;;2.88;1.55;;;11.90;99.90;;;;;;5034317;28;20397;-72
2023/08/28 02:50:01;;;;;;;2.80;1.50;;;11.90;99.90;;;;;;5051004;28;20045;-73
2023/08/28 02:52:27;;;;;;;5.03;1.48;;;11.80;99.90;;;;;;5034404;28;20071;-73
2023/08/28 02:54:52;;;;;;;3.35;1.50;;;11.80;99.90;;;;;;5052056;28;20128;-73
2023/08/28 02:57:18;;;;;;;2.90;1.65;;;11.80;99.90;;;;;;5051490;28;20044;-73
2023/08/28 02:59:44;;;;;;;3.60;1.60;;;11.80;99.90;;;;;;5052228;28;20041;-73
2023/08/28 03:02:09;;;;;;;2.97;1.67;;;11.80;99.90;;;;;;5051232;28;20392;-73
2023/08/28 03:04:36;;;;;;;3.72;1.50;;;11.80;99.90;;;;;;5033440;28;20043;-73
2023/08/28 03:07:01;;;;;;;3.33;1.80;;;11.80;99.90;;;;;;5051892;28;20060;-72
2023/08/28 03:09:29;;;;;;;4.25;2.10;;;11.80;99.90;;;;;;5051107;28;20049;-73
2023/08/28 03:11:55;;;;;;;5.15;2.10;;;11.80;99.90;;;;;;5033865;28;20060;-73
2023/08/28 03:14:21;;;;;;;4.75;2.00;;;11.80;99.90;;;;;;5051688;28;20073;-72
2023/08/28 03:16:47;;;;;;;4.57;1.80;;;11.70;99.90;;;;;;5035848;28;20522;-73
2023/08/28 03:19:12;;;;;;;5.30;1.90;;;11.70;99.90;;;;;;5055912;28;20111;-72
2023/08/28 03:21:39;;;;;;;5.00;1.90;;;11.60;99.90;;;;;;5056011;28;20111;-73
2023/08/28 03:24:05;;;;;;;5.45;2.10;;;11.60;99.90;;;;;;5054088;28;20123;-73
2023/08/28 03:26:31;;;;;;;3.05;1.95;;;11.70;99.90;;;;;;5037453;28;20056;-72
2023/08/28 03:28:57;;;;;;;4.90;2.30;;;11.70;99.90;;;;;;5055383;28;20049;-72
2023/08/28 03:31:23;;;;;;;4.65;2.20;;;11.80;99.90;;;;;;5055051;28;20049;-72
2023/08/28 03:33:48;;;;;;;3.75;2.33;;;11.70;99.90;;;;;;5036762;28;20045;-72
2023/08/28 03:36:14;;;;;;;3.50;2.13;;;11.70;99.90;;;;;;5055786;28;20041;-72
2023/08/28 03:38:39;;;;;;;5.30;2.60;;;11.80;99.90;;;;;;5054705;28;20043;-72
2023/08/28 03:41:05;;;;;;;3.10;2.20;;;11.80;99.90;;;;;;5055214;28;20148;-73
2023/08/28 03:43:31;;;;;;;4.97;2.33;;;11.70;99.90;;;;;;5054774;28;20037;-72
2023/08/28 03:45:56;;;;;;;4.50;2.35;;;11.80;99.90;;;;;;5036313;28;20404;-73
2023/08/28 03:48:22;;;;;;;3.95;2.58;;;11.90;99.90;;;;;;5051736;28;20447;-73
2023/08/28 03:50:48;;;;;;;4.70;2.78;;;11.90;99.90;;;;;;5037952;28;20087;-74
2023/08/28 03:53:13;;;;;;;5.43;2.70;;;11.90;99.90;;;;;;5034737;28;20469;-74
2023/08/28 03:55:39;;;;;;;4.57;2.60;;;11.90;99.90;;;;;;5017500;28;20543;-73
2023/08/28 03:58:05;;;;;;;5.28;2.80;;;12.00;99.90;;;;;;5040959;28;20120;-74
2023/08/28 04:00:33;;;;;;;4.28;2.50;;;12.00;99.90;;;;;;5054579;28;20217;-73
2023/08/28 04:02:59;;;;;;;4.78;2.80;;;12.00;99.90;;;;;;5036794;28;20056;-73
2023/08/28 04:05:26;;;;;;;3.50;2.50;;;12.00;99.90;;;;;;5055306;28;20421;-73
2023/08/28 04:07:52;;;;;;;3.70;2.80;;;12.00;99.90;;;;;;5053914;28;20067;-73
2023/08/28 04:10:18;;;;;;;4.85;2.15;;;12.10;99.90;;;;;;5055129;28;20056;-73
2023/08/28 04:12:44;;;;;;;4.75;2.65;;;12.10;99.90;;;;;;5053666;28;20032;-73
2023/08/28 04:15:10;;;;;;;4.03;2.50;;;12.00;99.90;;;;;;5036572;28;20082;-73
2023/08/28 04:17:36;;;;;;;3.88;2.60;;;12.00;99.90;;;;;;5054766;28;20045;-73
2023/08/28 04:20:20;;;;;;;4.30;2.92;;;12.00;99.90;;;;;;5053961;28;20101;-73
2023/08/28 04:22:45;;;;;;;4.03;2.40;;;11.90;99.90;;;;;;5036565;28;20491;-74
2023/08/28 04:25:13;;;;;;;5.30;2.65;;;11.90;99.90;;;;;;5036582;28;20048;-73
2023/08/28 04:27:39;;;;;;;3.65;2.55;;;11.90;99.90;;;;;;5053792;28;20118;-73
2023/08/28 04:30:09;;;;;;;4.53;2.58;;;11.90;99.90;;;;;;5054321;28;20102;-73
2023/08/28 04:32:35;;;;;;;5.10;3.30;;;11.90;99.90;;;;;;5035444;28;20053;-74
2023/08/28 04:35:01;;;;;;;3.85;2.90;;;11.80;99.90;;;;;;5053659;28;20071;-74
2023/08/28 04:37:27;;;;;;;4.72;2.95;;;11.70;99.90;;;;;;5054191;28;20381;-73
2023/08/28 04:39:53;;;;;;;4.30;2.72;;;11.70;99.90;;;;;;5054212;28;20091;-73
2023/08/28 04:42:19;;;;;;;5.00;3.17;;;11.70;99.90;;;;;;5035372;28;20144;-73
2023/08/28 04:44:46;;;;;;;4.90;3.10;;;11.60;99.90;;;;;;5054017;28;20844;-74
2023/08/28 04:47:14;;;;;;;3.45;2.70;;;11.60;99.90;;;;;;5035605;28;20048;-74
2023/08/28 04:49:40;;;;;;;3.95;2.50;;;11.60;99.90;;;;;;5046761;28;20044;-73
2023/08/28 04:52:06;;;;;;;5.57;3.00;;;11.60;99.90;;;;;;5040020;28;20370;-74
2023/08/28 04:54:33;;;;;;;5.20;3.58;;;11.60;99.90;;;;;;5036776;28;20433;-74
2023/08/28 04:56:58;;;;;;;4.68;3.15;;;11.50;99.90;;;;;;5032843;28;20091;-74
2023/08/28 04:59:24;;;;;;;4.40;3.00;;;11.50;99.90;;;;;;5034116;28;20041;-75
2023/08/28 05:01:50;;;;;;;7.97;3.40;;;11.50;99.90;;;;;;5015864;28;20401;-74
2023/08/28 05:04:15;;;;;;;5.60;3.22;;;11.50;99.90;;;;;;5033273;28;20496;-74
2023/08/28 05:06:41;;;;;;;6.53;3.20;;;11.50;99.90;;;;;;5033972;28;20044;-74
2023/08/28 05:09:07;;;;;;;4.72;3.53;;;11.50;99.90;;;;;;5014705;28;20103;-75
2023/08/28 05:11:32;;;;;;;7.18;3.40;;;11.50;99.90;;;;;;5033550;28;20103;-74
2023/08/28 05:13:58;;;;;;;4.32;3.33;;;11.50;99.90;;;;;;5033554;28;20037;-74
2023/08/28 05:16:24;;;;;;;5.38;3.22;;;11.50;99.90;;;;;;5032895;28;20033;-75
2023/08/28 05:18:49;;;;;;;4.35;3.30;;;11.60;99.90;;;;;;5033573;28;20116;-74
2023/08/28 05:21:15;;;;;;;4.35;3.35;;;11.60;99.90;;;;;;5033580;28;20045;-75
2023/08/28 05:23:41;;;;;;;5.85;3.40;;;11.60;99.90;;;;;;5052373;28;20040;-75
2023/08/28 05:26:10;;;;;;;6.00;3.60;;;11.60;99.90;;;;;;5052926;28;20048;-75
2023/08/28 05:28:37;;;;;;;5.43;3.50;;;11.80;99.90;;;;;;5052932;28;20045;-75
2023/08/28 05:31:03;;;;;;;6.68;3.20;;;11.60;99.90;;;;;;5052129;28;20051;-75
2023/08/28 05:33:30;;;;;;;6.43;3.42;;;11.70;99.90;;;;;;5053229;28;20048;-75
2023/08/28 05:35:56;;;;;;;4.95;3.55;;;11.90;99.90;;;;;;5053098;28;20378;-75
2023/08/28 05:38:22;;;;;;;7.35;3.63;;;11.70;99.90;;;;;;5043998;28;20038;-76
2023/08/28 05:40:47;;;;;;;5.25;3.38;;;11.80;99.90;;;;;;5032225;28;20057;-73
2023/08/28 05:43:13;;;;;;;8.55;3.65;;;11.80;99.90;;;;;;5046990;28;20045;-76
2023/08/28 05:45:39;;;;;;;6.63;3.55;;;11.80;99.90;;;;;;5038792;28;20037;-76
2023/08/28 05:48:05;;;;;;;6.47;3.40;;;11.80;99.90;;;;;;5015066;28;20476;-75
2023/08/28 05:50:31;;;;;;;6.40;3.70;;;11.90;99.90;;;;;;5047594;28;20452;-73
2023/08/28 05:52:56;;;;;;;4.82;3.30;;;11.90;99.90;;;;;;5034762;28;20055;-76
2023/08/28 05:55:22;;;;;;;5.03;3.17;;;11.90;99.90;;;;;;5034276;28;20032;-72
2023/08/28 05:57:48;;;;;;;7.20;3.53;;;12.00;99.90;;;;;;5052538;28;20052;-77
2023/08/28 06:00:14;;;;;;;5.07;3.30;;;12.00;99.90;;;;;;5033626;28;20438;-75
2023/08/28 06:02:41;;;;;;;6.20;3.65;;;12.10;99.90;;;;;;5052611;28;20041;-74
2023/08/28 06:05:07;;;;;;;5.20;3.50;;;12.10;99.90;;;;;;5052663;28;20106;-76
2023/08/28 06:07:33;;;;;;;5.82;3.60;;;12.30;99.90;;;;;;5051283;28;20083;-78
2023/08/28 06:09:59;;;;;;;5.13;3.42;;;12.30;99.90;;;;;;5051961;28;20088;-80
2023/08/28 06:12:25;;;;;;;5.68;3.63;;;12.40;99.90;;;;;;5051718;28;20049;-77
2023/08/28 06:14:50;;;;;;;5.95;3.30;;;12.50;99.90;;;;;;5052026;28;20033;-72
2023/08/28 06:17:16;;;;;;;6.47;3.35;;;12.60;99.90;;;;;;5052465;28;20048;-72
2023/08/28 06:19:42;;;;;;;6.55;3.30;;;12.70;99.90;;;;;;5051722;28;20357;-77
2023/08/28 06:22:07;;;;;;;4.65;3.22;;;12.70;99.90;;;;;;5051847;28;20092;-74
2023/08/28 06:24:33;;;;;;;6.25;3.33;;;12.90;99.90;;;;;;5025343;28;20049;-76
2023/08/28 06:26:59;;;;;;;6.38;3.08;;;12.90;99.90;;;;;;5050161;28;20048;-71
2023/08/28 06:29:25;;;;;;;5.43;3.30;;;13.00;99.90;;;;;;5051810;28;20048;-70
2023/08/28 06:31:51;;;;;;;7.10;3.15;;;13.10;99.90;;;;;;5050818;28;20056;-75
2023/08/28 06:34:17;;;;;;;5.72;3.25;;;13.10;99.90;;;;;;5034042;28;20052;-73
2023/08/28 06:36:42;;;;;;;8.00;3.40;;;13.20;99.90;;;;;;5052273;28;20404;-73
2023/08/28 06:39:08;;;;;;;5.15;2.75;;;13.30;99.90;;;;;;5033501;28;20041;-73
2023/08/28 06:41:36;;;;;;;4.43;2.75;;;13.40;99.90;;;;;;5038908;28;20037;-74
2023/08/28 06:44:04;;;;;;;5.95;2.78;;;13.50;99.90;;;;;;5031754;28;20469;-73
2023/08/28 06:46:31;;;;;;;10.98;2.60;;;13.60;99.90;;;;;;5033999;28;20045;-74
2023/08/28 06:48:56;;;;;;;8.15;2.70;;;13.70;99.90;;;;;;5033262;28;20048;-74
2023/08/28 06:51:22;;;;;;;4.80;2.00;;;13.80;99.90;;;;;;5048767;28;20400;-75
2023/08/28 06:53:49;;;;;;;5.28;2.15;;;13.90;99.90;;;;;;5026442;28;20126;-75
2023/08/28 06:56:15;;;;;;;5.35;2.65;;;14.00;99.90;;;;;;5055508;28;20064;-75
2023/08/28 06:58:40;;;;;;;5.13;2.15;;;14.10;99.90;;;;;;5038292;28;20041;-74
2023/08/28 07:01:06;;;;;;;3.33;1.90;;;14.20;99.90;;;;;;5038296;28;20053;-74
2023/08/28 07:03:32;;;;;;;5.32;2.10;;;14.30;99.90;;;;;;5037415;28;20048;-75
2023/08/28 07:05:58;;;;;;;4.50;2.20;;;14.40;99.90;;;;;;5055781;28;20041;-75
2023/08/28 07:08:23;;;;;;;5.13;1.60;;;14.50;99.90;;;;;;5055905;28;20049;-74
2023/08/28 07:10:49;;;;;;;2.33;1.20;;;14.60;99.90;;;;;;5054981;28;20041;-74
2023/08/28 07:13:15;;;;;;;3.70;1.45;;;14.80;99.90;;;;;;5038047;28;20400;-74
2023/08/28 07:15:40;;;;;;;2.22;1.00;;;14.90;99.90;;;;;;5055369;28;20384;-74
2023/08/28 07:18:06;;;;;;;3.05;1.10;;;15.40;99.90;;;;;;5055790;28;20396;-75
2023/08/28 07:20:32;;;;;;;4.50;1.10;;;16.50;99.90;;;;;;5037254;28;20052;-75
2023/08/28 07:22:58;;;;;;;3.55;1.00;;;17.80;99.90;;;;;;5054388;28;20045;-75
2023/08/28 07:25:24;;;;;;;3.67;0.90;;;19.30;99.90;;;;;;5055876;28;20092;-74
2023/08/28 07:27:50;;;;;;;1.73;0.80;;;20.60;99.90;;;;;;5055312;28;20492;-74
2023/08/28 07:30:16;;;;;;;3.58;1.10;;;21.70;99.90;;;;;;5036598;28;20036;-75
2023/08/28 07:32:42;;;;;;;4.07;0.98;;;22.70;99.90;;;;;;5055681;28;20130;-74
2023/08/28 07:35:08;;;;;;;2.85;0.70;;;23.50;99.90;;;;;;5036572;28;20045;-74
2023/08/28 07:37:35;;;;;;;2.63;1.13;;;24.10;99.90;;;;;;5036859;28;20048;-73
2023/08/28 07:40:00;;;;;;;1.88;0.80;;;24.80;99.90;;;;;;5054967;28;20365;-73
2023/08/28 07:42:26;;;;;;;3.05;0.95;;;25.40;99.90;;;;;;5055453;28;20052;-74
2023/08/28 07:44:52;;;;;;;3.10;0.90;;;26.00;99.90;;;;;;5054046;28;20037;-74
2023/08/28 07:47:18;;;;;;;2.67;0.63;;;26.40;99.50;;;;;;5055644;28;20047;-74
2023/08/28 07:49:44;;;;;;;1.90;0.70;;;26.90;98.20;;;;;;5037359;28;20041;-73
2023/08/28 07:52:10;;;;;;;1.75;0.70;;;27.40;98.60;;;;;;5053791;28;20638;-74
2023/08/28 07:54:36;;;;;;;3.53;0.77;;;27.50;96.90;;;;;;5037493;28;20451;-75
2023/08/28 07:57:06;;;;;;;2.05;0.80;;;27.80;93.90;;;;;;5054833;28;20056;-75
2023/08/28 07:59:32;;;;;;;2.78;0.70;;;28.00;95.30;;;;;;5057088;28;20136;-74
2023/08/28 08:02:01;;;;;;;1.88;0.82;;;28.10;93.90;;;;;;5050630;28;20052;-74
2023/08/28 08:04:27;;;;;;;2.42;0.88;;;28.60;93.30;;;;;;5042094;28;20048;-74
2023/08/28 08:06:52;;;;;;;3.97;0.90;;;28.80;94.70;;;;;;5060270;28;20037;-74
2023/08/28 08:09:18;;;;;;;2.30;0.70;;;29.20;93.90;;;;;;5062431;28;20065;-75
2023/08/28 08:11:44;;;;;;;3.40;0.90;;;29.50;94.00;;;;;;5040967;28;20056;-74
2023/08/28 08:14:10;;;;;;;2.38;0.70;;;29.80;91.20;;;;;;5044762;28;20075;-74
2023/08/28 08:16:36;;;;;;;1.65;0.63;;;28.90;93.50;;;;;;5061522;28;20124;-74
2023/08/28 08:19:02;;;;;;;2.88;0.82;;;27.40;92.60;;;;;;5057851;28;20119;-74
2023/08/28 08:21:28;;;;;;;2.38;0.88;;;27.00;94.90;;;;;;5046629;28;20395;-72
2023/08/28 08:23:55;;;;;;;2.67;0.68;;;27.70;94.70;;;;;;5024784;28;20045;-74
2023/08/28 08:26:21;;;;;;;2.03;0.82;;;28.30;94.00;;;;;;5042756;28;20101;-71
2023/08/28 08:28:47;;;;;;;1.90;0.75;;;28.50;93.70;;;;;;5061259;28;20048;-71
2023/08/28 08:31:13;;;;;;;2.30;0.70;;;27.60;93.90;;;;;;5062690;28;20045;-69
2023/08/28 08:33:38;;;;;;;2.80;0.70;;;26.90;94.30;;;;;;5061140;28;20412;-72
2023/08/28 08:36:05;;;;;;;3.05;0.90;;;25.90;94.80;;;;;;5062203;28;20341;-70
2023/08/28 08:38:30;;;;;;;2.55;0.70;;;25.40;95.80;;;;;;5062757;28;20094;-72
2023/08/28 08:40:58;;;;;;;1.38;0.60;;;26.00;96.20;;;;;;5043730;28;20428;-72
2023/08/28 08:43:28;;;;;;;2.13;0.80;;;27.30;95.00;;;;;;5065148;28;20083;-74
2023/08/28 08:46:15;;;;;;;1.55;0.70;;;28.20;93.50;;;;;;5062858;28;20045;-72
2023/08/28 08:48:43;;;;;;;2.10;0.77;;;29.20;93.30;;;;;;5055502;28;20048;-71
2023/08/28 08:51:09;;;;;;;1.95;0.75;;;29.80;93.10;;;;;;5056383;28;20480;-73
2023/08/28 08:53:53;;;;;;;3.05;0.98;;;29.90;90.70;;;;;;5040638;28;20049;-73
2023/08/28 08:56:21;;;;;;;4.00;0.75;;;29.40;91.00;;;;;;5035090;28;20091;-73
2023/08/28 08:58:49;;;;;;;2.35;0.80;;;29.00;92.30;;;;;;5051704;28;20063;-74
2023/08/28 09:01:16;;;;;;;3.40;0.88;;;29.30;92.60;;;;;;5028805;28;20128;-73
2023/08/28 09:03:43;;;;;;;2.17;0.70;;;29.40;91.40;;;;;;5053844;28;20040;-70
2023/08/28 09:06:10;;;;;;;2.58;1.17;;;29.80;91.60;;;;;;5035483;28;20395;-72
2023/08/28 09:08:38;;;;;;;2.78;0.70;;;30.10;91.90;;;;;;5034072;28;20098;-74
2023/08/28 09:11:08;;;;;;;3.90;0.60;;;30.60;90.50;;;;;;5053120;28;20045;-72
2023/08/28 09:13:37;;;;;;;1.45;0.70;;;30.90;90.40;;;;;;5052413;28;20143;-72
2023/08/28 09:16:04;;;;;;;4.38;0.90;;;30.90;90.20;;;;;;5051699;28;20495;-70
2023/08/28 09:18:32;;;;;;;2.63;0.70;;;30.30;90.60;;;;;;5052515;28;20044;-71
2023/08/28 09:21:09;;;;;;;2.58;0.85;;;29.70;90.50;;;;;;5033881;28;20511;-71
2023/08/28 09:23:42;;;;;;;3.60;0.70;;;29.50;92.10;;;;;;5041742;28;20046;-71
2023/08/28 09:26:07;;;;;;;3.33;0.90;;;29.60;91.10;;;;;;5045017;28;20502;-72
2023/08/28 09:28:33;;;;;;;3.28;0.95;;;30.10;91.40;;;;;;5041750;28;20037;-72
2023/08/28 09:30:59;;;;;;;2.25;0.60;;;30.70;90.90;;;;;;5039837;28;20092;-72
2023/08/28 09:33:24;;;;;;;2.45;0.95;;;30.20;90.30;;;;;;5036798;28;20037;-72
2023/08/28 09:35:50;;;;;;;2.13;0.70;;;29.30;90.40;;;;;;5052945;28;20037;-72
2023/08/28 09:38:16;;;;;;;3.05;0.63;;;29.30;91.60;;;;;;5034454;28;20040;-72
2023/08/28 09:40:42;;;;;;;2.78;0.68;;;29.70;91.30;;;;;;5053008;28;20087;-74
2023/08/28 09:43:15;;;;;;;1.80;0.70;;;30.00;90.50;;;;;;5034906;28;20123;-72
2023/08/28 09:45:45;;;;;;;1.98;0.65;;;28.90;90.00;;;;;;5035293;28;20405;-71
2023/08/28 09:48:11;;;;;;;1.98;0.70;;;27.90;90.90;;;;;;5053059;28;20037;-71
2023/08/28 09:50:41;;;;;;;2.38;0.73;;;27.00;91.80;;;;;;5052160;28;20063;-71
2023/08/28 09:53:14;;;;;;;2.17;0.80;;;25.90;92.20;;;;;;5067904;28;20049;-71
2023/08/28 09:55:49;;;;;;;3.08;0.70;;;25.30;93.10;;;;;;5052978;28;20037;-72
2023/08/28 09:58:16;;;;;;;3.08;0.88;;;24.50;94.40;;;;;;5067592;28;20556;-72
2023/08/28 10:00:42;;;;;;;4.68;0.90;;;24.20;95.50;;;;;;5052903;28;20084;-72
2023/08/28 10:03:12;;;;;;;2.00;0.70;;;25.10;95.90;;;;;;5052501;28;20123;-72
2023/08/28 10:05:44;;;;;;;1.95;0.60;;;26.30;95.00;;;;;;5052135;28;20053;-72
2023/08/28 10:08:12;;;;;;;1.77;0.80;;;26.70;93.80;;;;;;5052357;28;20060;-72
2023/08/28 10:10:40;;;;;;;2.38;0.80;;;26.30;93.50;;;;;;5068056;28;20500;-72
2023/08/28 10:13:10;;;;;;;2.50;0.80;;;25.60;93.90;;;;;;5051841;28;20055;-72
2023/08/28 10:15:51;;;;;;;2.22;0.70;;;24.80;94.50;;;;;;5052872;28;20037;-72
2023/08/28 10:18:34;;;;;;;1.73;0.73;;;24.10;95.60;;;;;;5052701;28;20118;-71
2023/08/28 10:21:01;;;;;;;3.63;1.00;;;23.70;96.30;;;;;;5067674;28;20041;-71
2023/08/28 10:23:28;;;;;;;0.95;0.50;;;23.10;97.10;;;;;;5038044;28;20050;-72
2023/08/28 10:25:55;;;;;;;2.65;1.00;;;22.80;97.40;;;;;;5013786;28;20093;-71
2023/08/28 10:28:24;;;;;;;1.52;0.68;;;22.50;98.30;;;;;;5032435;28;20045;-72
2023/08/28 10:30:51;;;;;;;4.78;0.90;;;22.40;98.80;;;;;;5014391;28;20052;-73
2023/08/28 10:33:20;;;;;;;3.45;0.88;;;22.60;99.70;;;;;;5013909;28;20076;-70
2023/08/28 10:35:51;;;;;;;3.00;0.85;;;23.30;99.50;;;;;;5032464;28;20083;-69
2023/08/28 10:38:20;;;;;;;2.45;1.20;;;23.40;98.30;;;;;;5032745;28;20053;-70
2023/08/28 10:40:50;;;;;;;5.53;1.15;;;23.30;97.90;;;;;;5031439;28;20056;-70
2023/08/28 10:43:19;;;;;;;2.97;1.00;;;23.10;98.50;;;;;;5032413;28;20057;-71
2023/08/28 10:45:46;;;;;;;3.25;0.82;;;22.90;98.70;;;;;;5032540;28;20099;-71
2023/08/28 10:48:12;;;;;;;3.00;0.68;;;22.70;99.30;;;;;;5013777;28;20061;-73
2023/08/28 10:50:39;;;;;;;2.60;0.63;;;22.40;99.20;;;;;;5032305;28;20041;-72
2023/08/28 10:53:13;;;;;;;3.90;0.70;;;22.60;98.90;;;;;;5014164;28;20136;-72
2023/08/28 10:55:49;;;;;;;1.38;0.70;;;22.60;99.30;;;;;;5013851;28;20084;-73
2023/08/28 10:58:15;;;;;;;2.25;1.02;;;22.70;99.20;;;;;;5032439;28;20124;-71
2023/08/28 11:00:41;;;;;;;3.42;0.80;;;23.40;99.10;;;;;;5031562;28;20080;-73
2023/08/28 11:03:15;;;;;;;2.78;0.95;;;23.80;98.80;;;;;;5014335;28;20470;-76
2023/08/28 11:05:44;;;;;;;2.47;0.80;;;24.00;99.00;;;;;;5014286;28;20049;-75
2023/08/28 11:08:11;;;;;;;2.13;0.65;;;24.00;97.90;;;;;;5030851;28;20061;-75
2023/08/28 11:10:39;;;;;;;2.28;0.90;;;24.20;97.50;;;;;;5032077;28;20410;-76
2023/08/28 11:13:07;;;;;;;4.05;0.90;;;24.30;97.00;;;;;;5013921;28;20049;-74
2023/08/28 11:15:43;;;;;;;3.40;0.82;;;24.30;97.20;;;;;;5031174;28;20041;-74
2023/08/28 11:18:28;;;;;;;2.72;0.70;;;24.00;97.40;;;;;;5031737;28;20065;-72
2023/08/28 11:21:03;;;;;;;2.45;0.70;;;24.00;97.20;;;;;;5014140;28;20495;-72
2023/08/28 11:23:36;;;;;;;4.25;0.82;;;23.80;97.60;;;;;;5046112;28;20045;-74
2023/08/28 11:26:17;;;;;;;2.85;0.70;;;23.60;98.00;;;;;;5051848;28;20502;-73
2023/08/28 11:28:44;;;;;;;2.40;0.90;;;23.50;98.20;;;;;;5051251;28;20425;-72
2023/08/28 11:31:11;;;;;;;3.13;0.68;;;23.50;98.20;;;;;;5033688;28;20052;-73
2023/08/28 11:33:41;;;;;;;2.22;0.80;;;23.40;98.50;;;;;;5033814;28;20052;-79
2023/08/28 11:36:19;;;;;;;4.18;1.40;;;23.30;98.40;;;;;;5050919;28;20084;-78
2023/08/28 11:38:49;;;;;;;1.95;0.65;;;23.40;98.00;;;;;;5055474;28;20067;-77
2023/08/28 11:41:18;;;;;;;2.55;0.70;;;23.50;98.20;;;;;;5055135;28;20069;-76
2023/08/28 11:43:44;;;;;;;2.15;0.80;;;23.80;98.60;;;;;;5054689;28;20056;-78
2023/08/28 11:46:11;;;;;;;2.05;0.70;;;24.50;97.50;;;;;;5028273;28;20537;-77
2023/08/28 11:48:39;;;;;;;1.63;0.60;;;24.40;96.80;;;;;;5043971;28;20543;-76
2023/08/28 11:51:08;;;;;;;2.15;0.70;;;25.00;96.90;;;;;;5036535;28;20041;-74
2023/08/28 11:53:36;;;;;;;1.25;0.50;;;26.00;95.00;;;;;;5017797;28;20050;-74
2023/08/28 11:56:03;;;;;;;1.45;0.60;;;27.10;95.20;;;;;;5034795;28;20052;-74
2023/08/28 11:58:30;;;;;;;1.42;0.68;;;28.20;93.60;;;;;;5034339;28;20546;-73
2023/08/28 12:00:57;;;;;;;2.47;0.70;;;28.40;93.50;;;;;;5017013;28;20056;-74
2023/08/28 12:03:23;;;;;;;4.45;0.65;;;28.20;94.20;;;;;;5017279;28;20056;-73
2023/08/28 12:05:48;;;;;;;1.25;0.50;;;29.10;94.90;;;;;;5033970;28;20033;-75
2023/08/28 12:08:15;;;;;;;2.72;0.70;;;29.30;91.90;;;;;;5017109;28;20511;-74
2023/08/28 12:10:41;;;;;;;1.75;0.80;;;30.00;91.80;;;;;;5041485;28;20064;-74
2023/08/28 12:13:06;;;;;;;1.33;0.63;;;30.30;91.50;;;;;;5053001;28;20040;-75
2023/08/28 12:15:35;;;;;;;2.75;0.73;;;30.30;91.30;;;;;;5057030;28;20033;-75
2023/08/28 12:18:05;;;;;;;3.08;0.80;;;30.40;92.80;;;;;;5052624;28;20037;-75
2023/08/28 12:20:35;;;;;;;0.95;0.55;;;30.60;91.80;;;;;;5054344;28;20534;-75
2023/08/28 12:23:02;;;;;;;1.95;0.70;;;30.20;91.00;;;;;;5035761;28;20432;-74
2023/08/28 12:25:35;;;;;;;2.13;0.57;;;29.90;91.00;;;;;;5053129;28;20044;-74
2023/08/28 12:28:08;;;;;;;2.50;0.73;;;29.20;91.50;;;;;;5040567;28;20060;-75
2023/08/28 12:30:39;;;;;;;3.22;0.70;;;27.90;91.90;;;;;;5035178;28;20045;-75
2023/08/28 12:33:05;;;;;;;3.17;0.73;;;27.60;92.70;;;;;;5053762;28;20090;-75
2023/08/28 12:35:40;;;;;;;1.70;0.70;;;27.90;93.10;;;;;;5054335;28;20067;-76
2023/08/28 12:38:05;;;;;;;2.05;0.70;;;28.70;93.30;;;;;;5053483;28;20181;-76
2023/08/28 12:40:35;;;;;;;1.30;0.60;;;29.20;92.50;;;;;;5068833;28;20124;-76
2023/08/28 12:43:03;;;;;;;1.75;0.75;;;29.10;91.60;;;;;;5066995;28;20049;-76
2023/08/28 12:45:30;;;;;;;1.92;0.70;;;28.70;91.40;;;;;;5034543;28;20050;-76
2023/08/28 12:47:56;;;;;;;2.45;0.63;;;28.50;91.80;;;;;;5033030;28;20588;-75
2023/08/28 12:50:22;;;;;;;2.78;0.70;;;27.90;92.20;;;;;;5036025;28;20200;-76